createdAt,value
2018-03-21T00:02:19.612Z,88.35
2018-03-21T00:04:47.956Z,88.67
2018-03-21T00:07:15.531Z,88.94
2018-03-21T00:09:43.628Z,89.65
2018-03-21T00:12:11.216Z,89.71
2018-03-21T00:14:38.794Z,89.38
2018-03-21T00:17:06.372Z,89.13
2018-03-21T00:19:33.959Z,89.03
2018-03-21T00:22:01.535Z,88.82
2018-03-21T00:24:29.116Z,88.61
2018-03-21T00:26:56.703Z,88.75
2018-03-21T00:29:24.284Z,88.52
2018-03-21T00:31:52.671Z,88.66
2018-03-21T00:34:20.243Z,89.21
2018-03-21T00:36:47.826Z,89.97
2018-03-21T00:39:15.405Z,90.01
2018-03-21T00:41:42.989Z,90.38
2018-03-21T00:44:10.568Z,90.55
2018-03-21T00:46:38.159Z,91.04
2018-03-21T00:49:05.728Z,91.34
2018-03-21T00:51:33.303Z,91.29
2018-03-21T00:54:01.719Z,91.17
2018-03-21T00:56:29.331Z,91.58
2018-03-21T00:58:56.908Z,91.68
2018-03-21T01:01:24.484Z,91.55
2018-03-21T01:03:52.063Z,91.78
2018-03-21T01:06:19.647Z,91.68
2018-03-21T01:08:47.267Z,92.50
2018-03-21T01:11:14.848Z,92.25
2018-03-21T01:13:42.429Z,92.28
2018-03-21T01:16:10.009Z,92.03
2018-03-21T01:18:37.600Z,92.09
2018-03-21T01:21:05.196Z,91.95
2018-03-21T01:23:32.803Z,92.34
2018-03-21T01:26:00.382Z,92.07
2018-03-21T01:28:27.969Z,92.70
2018-03-21T01:30:55.562Z,92.75
2018-03-21T01:33:23.215Z,93.15
2018-03-21T01:35:50.799Z,92.94
2018-03-21T01:38:18.493Z,93.33
2018-03-21T01:40:46.075Z,92.99
2018-03-21T01:43:13.817Z,92.43
2018-03-21T01:45:41.406Z,91.81
2018-03-21T01:48:09.021Z,91.10
2018-03-21T01:50:36.610Z,90.74
2018-03-21T01:53:10.935Z,90.31
2018-03-21T01:55:38.515Z,90.37
2018-03-21T01:58:06.107Z,89.71
2018-03-21T02:00:34.399Z,90.18
2018-03-21T02:03:02.063Z,90.29
2018-03-21T02:05:30.355Z,90.17
2018-03-21T02:07:57.926Z,89.81
2018-03-21T02:10:25.504Z,89.73
2018-03-21T02:12:53.090Z,88.91
2018-03-21T02:15:20.678Z,88.96
2018-03-21T02:17:48.863Z,89.35
2018-03-21T02:20:16.444Z,89.51
2018-03-21T02:22:44.013Z,89.63
2018-03-21T02:25:11.666Z,90.02
2018-03-21T02:27:39.284Z,90.08
2018-03-21T02:30:06.867Z,90.22
2018-03-21T02:32:34.445Z,89.99
2018-03-21T02:35:02.024Z,90.07
2018-03-21T02:37:29.610Z,90.04
2018-03-21T02:39:57.207Z,91.23
2018-03-21T02:42:24.797Z,91.40
2018-03-21T02:44:52.529Z,91.62
2018-03-21T02:47:20.167Z,92.13
2018-03-21T02:49:47.778Z,92.60
2018-03-21T02:52:15.359Z,92.47
2018-03-21T02:54:42.940Z,91.73
2018-03-21T02:57:10.523Z,92.59
2018-03-21T02:59:38.213Z,91.98
2018-03-21T03:02:06.628Z,91.88
2018-03-21T03:04:34.215Z,91.68
2018-03-21T03:07:01.801Z,91.48
2018-03-21T03:09:29.483Z,91.50
2018-03-21T03:11:57.106Z,91.42
2018-03-21T03:14:26.187Z,91.94
2018-03-21T03:16:54.674Z,91.29
2018-03-21T03:19:23.202Z,91.82
2018-03-21T03:21:50.783Z,91.69
2018-03-21T03:24:18.363Z,91.01
2018-03-21T03:26:46.549Z,90.70
2018-03-21T03:29:14.130Z,91.14
2018-03-21T03:31:41.719Z,90.70
2018-03-21T03:34:09.352Z,90.54
2018-03-21T03:36:36.927Z,90.83
2018-03-21T03:39:04.576Z,90.83
2018-03-21T03:41:32.154Z,90.93
2018-03-21T03:44:00.215Z,91.42
2018-03-21T03:46:27.782Z,91.36
2018-03-21T03:48:55.365Z,91.80
2018-03-21T03:51:22.959Z,91.35
2018-03-21T03:53:50.543Z,92.25
2018-03-21T03:56:18.152Z,92.41
2018-03-21T03:58:45.728Z,91.61
2018-03-21T04:01:13.813Z,91.31
2018-03-21T04:03:41.425Z,92.00
2018-03-21T04:06:09.021Z,91.72
2018-03-21T04:08:36.616Z,91.16
2018-03-21T04:11:04.200Z,91.16
2018-03-21T04:13:31.786Z,90.92
2018-03-21T04:15:59.366Z,90.69
2018-03-21T04:18:26.978Z,90.54
2018-03-21T04:20:54.566Z,90.95
2018-03-21T04:23:22.179Z,91.12
2018-03-21T04:25:49.863Z,91.04
2018-03-21T04:28:17.448Z,90.94
2018-03-21T04:30:45.027Z,90.52
2018-03-21T04:33:12.608Z,90.39
2018-03-21T04:35:40.187Z,90.20
2018-03-21T04:38:07.763Z,90.47
2018-03-21T04:40:35.352Z,90.72
2018-03-21T04:43:03.160Z,91.00
2018-03-21T04:45:30.740Z,91.04
2018-03-21T04:47:58.354Z,92.12
2018-03-21T04:50:25.934Z,92.45
2018-03-21T04:52:53.511Z,92.32
2018-03-21T04:55:21.726Z,92.60
2018-03-21T04:57:49.314Z,92.78
2018-03-21T05:00:16.900Z,92.66
2018-03-21T05:02:44.487Z,92.47
2018-03-21T05:05:12.847Z,92.61
2018-03-21T05:07:40.451Z,92.34
2018-03-21T05:10:08.040Z,92.87
2018-03-21T05:12:35.624Z,93.10
2018-03-21T05:15:03.216Z,92.70
2018-03-21T05:17:30.803Z,92.46
2018-03-21T05:19:58.385Z,92.17
2018-03-21T05:22:25.968Z,92.25
2018-03-21T05:24:53.550Z,92.19
2018-03-21T05:27:21.239Z,92.00
2018-03-21T05:29:48.831Z,91.87
2018-03-21T05:32:16.467Z,92.40
2018-03-21T05:34:44.055Z,92.60
2018-03-21T05:37:11.648Z,92.26
2018-03-21T05:39:39.227Z,92.52
2018-03-21T05:42:06.916Z,92.42
2018-03-21T05:44:34.606Z,92.70
2018-03-21T05:47:02.195Z,92.29
2018-03-21T05:49:29.781Z,91.54
2018-03-21T05:51:58.179Z,91.11
2018-03-21T05:54:25.815Z,91.89
2018-03-21T05:56:54.318Z,91.50
2018-03-21T05:59:22.727Z,91.16
2018-03-21T06:01:51.040Z,91.67
2018-03-21T06:04:19.549Z,91.55
2018-03-21T06:06:47.161Z,91.32
2018-03-21T06:09:15.541Z,91.20
2018-03-21T06:11:44.188Z,90.93
2018-03-21T06:14:12.648Z,91.15
2018-03-21T06:16:41.057Z,91.15
2018-03-21T06:19:09.445Z,90.83
2018-03-21T06:21:37.805Z,91.07
2018-03-21T06:24:06.174Z,90.22
2018-03-21T06:26:33.766Z,90.25
2018-03-21T06:29:01.358Z,89.42
2018-03-21T06:31:28.939Z,89.84
2018-03-21T06:33:56.649Z,89.59
2018-03-21T06:36:24.241Z,89.40
2018-03-21T06:38:51.819Z,89.36
2018-03-21T06:41:19.408Z,88.33
2018-03-21T06:43:47.911Z,88.49
2018-03-21T06:46:16.300Z,88.09
2018-03-21T06:48:44.664Z,87.39
2018-03-21T06:51:12.243Z,87.68
2018-03-21T06:53:40.553Z,87.12
2018-03-21T06:56:08.239Z,86.60
2018-03-21T06:58:35.824Z,86.13
2018-03-21T07:01:03.452Z,85.99
2018-03-21T07:03:31.088Z,85.24
2018-03-21T07:05:58.676Z,85.08
2018-03-21T07:08:26.257Z,84.80
2018-03-21T07:10:53.834Z,83.95
2018-03-21T07:13:21.416Z,83.70
2018-03-21T07:16:00.938Z,83.87
2018-03-21T07:18:28.558Z,83.03
2018-03-21T07:20:56.141Z,82.44
2018-03-21T07:23:23.754Z,83.39
2018-03-21T07:25:51.437Z,83.06
2018-03-21T07:28:19.080Z,81.78
2018-03-21T07:30:48.113Z,81.17
2018-03-21T07:33:16.377Z,81.00
2018-03-21T07:35:44.767Z,80.61
2018-03-21T07:38:13.058Z,79.68
2018-03-21T07:40:42.285Z,79.38
2018-03-21T07:43:10.459Z,79.70
2018-03-21T07:45:40.286Z,79.28
2018-03-21T07:48:10.221Z,77.97
2018-03-21T07:50:38.516Z,77.66
2018-03-21T07:53:07.240Z,78.17
2018-03-21T07:55:36.586Z,78.28
2018-03-21T07:58:04.920Z,77.51
2018-03-21T08:00:33.668Z,77.09
2018-03-21T08:03:01.987Z,76.69
2018-03-21T08:05:30.236Z,75.36
2018-03-21T08:07:59.231Z,75.71
2018-03-21T08:10:28.632Z,74.89
2018-03-21T08:12:56.979Z,73.60
2018-03-21T08:15:25.447Z,73.71
2018-03-21T08:17:54.557Z,73.22
2018-03-21T08:20:22.728Z,73.47
2018-03-21T08:22:51.621Z,73.49
2018-03-21T08:25:19.930Z,73.27
2018-03-21T08:27:48.113Z,71.86
2018-03-21T08:30:17.490Z,72.91
2018-03-21T08:32:47.075Z,71.48
2018-03-21T08:35:15.288Z,70.38
2018-03-21T08:37:44.604Z,71.11
2018-03-21T08:40:14.037Z,71.41
2018-03-21T08:42:42.744Z,70.81
2018-03-21T08:45:10.774Z,69.46
2018-03-21T08:47:38.929Z,68.79
2018-03-21T08:50:08.726Z,66.94
2018-03-21T08:52:36.930Z,67.63
2018-03-21T08:55:06.443Z,66.91
2018-03-21T08:57:34.642Z,69.17
2018-03-21T09:00:02.968Z,69.74
2018-03-21T09:02:32.198Z,69.63
2018-03-21T09:05:00.511Z,68.77
2018-03-21T09:07:31.301Z,68.36
2018-03-21T09:09:59.523Z,68.02
2018-03-21T09:12:28.053Z,67.22
2018-03-21T09:14:56.229Z,65.60
2018-03-21T09:17:28.969Z,65.72
2018-03-21T09:19:56.598Z,64.52
2018-03-21T09:22:24.207Z,65.28
2018-03-21T09:24:51.770Z,65.03
2018-03-21T09:27:19.380Z,64.05
2018-03-21T09:29:46.955Z,63.30
2018-03-21T09:32:14.537Z,61.45
2018-03-21T09:34:42.116Z,62.21
2018-03-21T09:37:09.722Z,60.05
2018-03-21T09:39:38.172Z,59.54
2018-03-21T09:42:05.747Z,58.17
2018-03-21T09:44:33.324Z,59.30
2018-03-21T09:47:00.905Z,60.03
2018-03-21T09:49:28.479Z,56.78
2018-03-21T09:51:56.166Z,57.27
2018-03-21T09:54:23.847Z,58.46
2018-03-21T09:56:51.416Z,57.01
2018-03-21T09:59:18.992Z,57.15
2018-03-21T10:01:46.608Z,54.90
2018-03-21T10:04:14.973Z,57.03
2018-03-21T10:06:43.324Z,52.25
2018-03-21T10:09:10.896Z,50.75
2018-03-21T10:11:38.470Z,51.16
2018-03-21T10:14:06.945Z,48.16
2018-03-21T10:16:35.307Z,45.63
2018-03-21T10:19:03.675Z,44.90
2018-03-21T10:21:31.247Z,44.56
2018-03-21T10:23:58.822Z,45.02
2018-03-21T10:26:26.390Z,46.02
2018-03-21T10:28:54.189Z,46.95
2018-03-21T10:31:21.727Z,42.57
2018-03-21T10:33:49.407Z,43.85
2018-03-21T10:36:17.775Z,43.16
2018-03-21T10:38:45.342Z,44.62
2018-03-21T10:41:13.728Z,45.20
2018-03-21T10:43:41.339Z,44.57
2018-03-21T10:46:08.911Z,43.90
2018-03-21T10:48:36.487Z,45.33
2018-03-21T10:51:05.220Z,44.53
2018-03-21T10:53:32.791Z,43.71
2018-03-21T10:56:00.353Z,43.04
2018-03-21T10:58:28.154Z,42.66
2018-03-21T11:00:55.744Z,43.19
2018-03-21T11:03:24.130Z,42.89
2018-03-21T11:05:51.740Z,43.40
2018-03-21T11:08:19.311Z,43.71
2018-03-21T11:10:46.883Z,43.86
2018-03-21T11:13:14.455Z,42.95
2018-03-21T11:15:42.052Z,40.88
2018-03-21T11:18:09.658Z,41.20
2018-03-21T11:20:37.270Z,40.50
2018-03-21T11:23:04.848Z,41.21
2018-03-21T11:25:32.437Z,40.55
2018-03-21T11:28:00.018Z,39.15
2018-03-21T11:30:27.635Z,38.25
2018-03-21T11:32:55.202Z,39.28
2018-03-21T11:35:22.771Z,39.27
2018-03-21T11:37:50.343Z,39.11
2018-03-21T11:40:17.919Z,37.02
2018-03-21T11:42:45.534Z,34.97
2018-03-21T11:45:13.111Z,35.06
2018-03-21T11:47:40.679Z,35.67
2018-03-21T11:50:08.252Z,35.42
2018-03-21T11:52:35.826Z,36.91
2018-03-21T11:55:03.487Z,34.93
2018-03-21T11:57:31.067Z,36.80
2018-03-21T11:59:59.383Z,35.76
2018-03-21T12:02:26.996Z,36.57
2018-03-21T12:04:54.568Z,35.47
2018-03-21T12:07:22.135Z,37.19
2018-03-21T12:09:49.708Z,38.41
2018-03-21T12:12:17.286Z,38.11
2018-03-21T12:14:44.958Z,37.68
2018-03-21T12:17:12.615Z,37.57
2018-03-21T12:19:40.191Z,37.58
2018-03-21T12:22:07.765Z,37.67
2018-03-21T12:24:35.338Z,38.79
2018-03-21T12:27:02.916Z,38.51
2018-03-21T12:29:30.487Z,39.39
2018-03-21T12:31:59.106Z,39.12
2018-03-21T12:34:26.877Z,39.35
2018-03-21T12:36:55.402Z,40.13
2018-03-21T12:39:23.057Z,40.71
2018-03-21T12:41:50.699Z,39.95
2018-03-21T12:44:19.279Z,40.47
2018-03-21T12:46:46.976Z,40.07
2018-03-21T12:49:14.547Z,40.33
2018-03-21T12:51:42.116Z,39.09
2018-03-21T12:54:10.648Z,38.89
2018-03-21T12:56:38.219Z,39.01
2018-03-21T12:59:05.856Z,40.08
2018-03-21T13:01:33.460Z,40.27
2018-03-21T13:04:01.815Z,41.30
2018-03-21T13:06:29.388Z,39.88
2018-03-21T13:08:57.005Z,39.85
2018-03-21T13:11:24.634Z,37.44
2018-03-21T13:13:52.390Z,38.10
2018-03-21T13:16:20.129Z,38.15
2018-03-21T13:18:48.501Z,38.17
2018-03-21T13:21:16.235Z,37.76
2018-03-21T13:23:44.628Z,37.12
2018-03-21T13:26:12.208Z,36.22
2018-03-21T13:28:40.687Z,36.43
2018-03-21T13:31:08.316Z,36.72
2018-03-21T13:33:35.893Z,37.37
2018-03-21T13:36:03.462Z,36.77
2018-03-21T13:38:31.999Z,36.88
2018-03-21T13:40:59.568Z,36.64
2018-03-21T13:43:27.178Z,36.74
2018-03-21T13:45:54.750Z,36.90
2018-03-21T13:48:22.901Z,36.59
2018-03-21T13:50:51.295Z,38.02
2018-03-21T13:53:19.661Z,36.28
2018-03-21T13:55:47.286Z,35.53
2018-03-21T13:58:14.858Z,36.54
2018-03-21T14:00:43.217Z,36.21
2018-03-21T14:03:11.575Z,36.27
2018-03-21T14:05:39.143Z,37.14
2018-03-21T14:08:06.719Z,37.08
2018-03-21T14:10:34.294Z,37.74
2018-03-21T14:13:01.864Z,38.02
2018-03-21T14:15:29.435Z,36.72
2018-03-21T14:17:57.110Z,36.72
2018-03-21T14:20:25.470Z,37.19
2018-03-21T14:22:53.102Z,37.30
2018-03-21T14:25:21.531Z,36.92
2018-03-21T14:27:49.139Z,37.13
2018-03-21T14:30:17.507Z,36.50
2018-03-21T14:32:45.231Z,37.06
2018-03-21T14:35:13.609Z,35.78
2018-03-21T14:37:41.187Z,35.51
2018-03-21T14:40:09.539Z,35.81
2018-03-21T14:42:37.158Z,35.91
2018-03-21T14:45:04.723Z,35.82
2018-03-21T14:47:32.295Z,35.80
2018-03-21T14:50:00.684Z,35.54
2018-03-21T14:52:29.028Z,35.55
2018-03-21T14:54:56.611Z,36.70
2018-03-21T14:57:25.861Z,37.01
2018-03-21T14:59:55.247Z,37.32
2018-03-21T15:02:22.820Z,37.57
2018-03-21T15:04:50.485Z,37.64
2018-03-21T15:07:18.056Z,36.75
2018-03-21T15:09:46.547Z,37.74
2018-03-21T15:12:14.888Z,39.53
2018-03-21T15:14:42.515Z,39.64
2018-03-21T15:17:10.090Z,39.45
2018-03-21T15:19:37.673Z,39.46
2018-03-21T15:22:05.629Z,40.13
2018-03-21T15:24:34.063Z,41.21
2018-03-21T15:27:02.421Z,41.27
2018-03-21T15:29:29.986Z,42.69
2018-03-21T15:31:57.604Z,42.90
2018-03-21T15:34:25.213Z,43.38
2018-03-21T15:36:52.783Z,44.00
2018-03-21T15:39:21.167Z,44.57
2018-03-21T15:41:48.784Z,45.72
2018-03-21T15:44:16.391Z,45.71
2018-03-21T15:46:43.962Z,46.33
2018-03-21T15:49:11.643Z,46.11
2018-03-21T15:51:39.287Z,46.65
2018-03-21T15:54:07.920Z,47.24
2018-03-21T15:56:35.505Z,47.47
2018-03-21T15:59:03.147Z,48.26
2018-03-21T16:01:30.731Z,48.05
2018-03-21T16:03:58.296Z,47.89
2018-03-21T16:06:26.435Z,48.59
2018-03-21T16:08:54.896Z,48.19
2018-03-21T16:11:22.534Z,48.35
2018-03-21T16:13:50.120Z,48.08
2018-03-21T16:16:18.735Z,48.31
2018-03-21T16:18:47.136Z,49.01
2018-03-21T16:21:15.495Z,48.81
2018-03-21T16:23:43.842Z,49.38
2018-03-21T16:26:11.448Z,49.71
2018-03-21T16:28:39.022Z,49.53
2018-03-21T16:31:06.642Z,50.63
2018-03-21T16:33:34.219Z,50.72
2018-03-21T16:36:02.629Z,50.06
2018-03-21T16:38:30.902Z,50.75
2018-03-21T16:40:58.487Z,49.76
2018-03-21T16:43:26.062Z,50.21
2018-03-21T16:45:53.644Z,51.67
2018-03-21T16:48:22.157Z,51.49
2018-03-21T16:50:50.519Z,51.79
2018-03-21T16:53:18.097Z,51.41
2018-03-21T16:55:45.673Z,51.28
2018-03-21T16:58:13.283Z,51.76
2018-03-21T17:00:40.856Z,51.40
2018-03-21T17:03:09.383Z,52.54
2018-03-21T17:05:37.766Z,52.34
2018-03-21T17:08:06.143Z,52.34
2018-03-21T17:10:34.808Z,52.54
2018-03-21T17:13:02.415Z,52.72
2018-03-21T17:15:30.878Z,52.92
2018-03-21T17:17:59.215Z,53.08
2018-03-21T17:20:26.791Z,53.65
2018-03-21T17:22:55.163Z,52.94
2018-03-21T17:25:23.502Z,53.31
2018-03-21T17:27:51.171Z,53.73
2018-03-21T17:30:18.743Z,53.89
2018-03-21T17:32:46.320Z,53.97
2018-03-21T17:35:14.825Z,53.60
2018-03-21T17:37:43.317Z,54.18
2018-03-21T17:40:11.723Z,54.91
2018-03-21T17:42:40.183Z,55.20
2018-03-21T17:45:07.842Z,55.71
2018-03-21T17:47:36.332Z,55.96
2018-03-21T17:50:04.673Z,56.35
2018-03-21T17:52:32.245Z,56.69
2018-03-21T17:55:00.787Z,57.09
2018-03-21T17:57:29.185Z,57.60
2018-03-21T17:59:57.679Z,56.89
2018-03-21T18:02:25.247Z,57.67
2018-03-21T18:04:52.854Z,57.24
2018-03-21T18:07:20.433Z,57.93
2018-03-21T18:09:48.010Z,57.68
2018-03-21T18:12:15.614Z,58.29
2018-03-21T18:14:43.273Z,58.32
2018-03-21T18:17:12.152Z,58.50
2018-03-21T18:19:40.353Z,58.82
2018-03-21T18:22:08.527Z,59.49
2018-03-21T18:24:36.108Z,59.88
2018-03-21T18:27:03.716Z,60.45
2018-03-21T18:29:32.131Z,60.70
2018-03-21T18:31:59.841Z,61.53
2018-03-21T18:34:27.411Z,61.11
2018-03-21T18:36:54.982Z,60.82
2018-03-21T18:39:23.153Z,61.47
2018-03-21T18:41:51.535Z,61.41
2018-03-21T18:44:19.998Z,61.41
2018-03-21T18:46:48.530Z,62.04
2018-03-21T18:49:16.942Z,61.80
2018-03-21T18:51:44.514Z,61.80
2018-03-21T18:54:12.124Z,61.43
2018-03-21T18:56:40.496Z,62.14
2018-03-21T18:59:08.898Z,62.39
2018-03-21T19:01:37.360Z,62.18
2018-03-21T19:04:04.971Z,61.64
2018-03-21T19:06:32.544Z,61.69
2018-03-21T19:09:00.162Z,62.46
2018-03-21T19:11:28.671Z,61.68
2018-03-21T19:13:57.112Z,62.01
2018-03-21T19:16:25.471Z,62.57
2018-03-21T19:18:53.050Z,62.21
2018-03-21T19:21:20.638Z,62.52
2018-03-21T19:23:48.208Z,63.02
2018-03-21T19:26:15.789Z,63.57
2018-03-21T19:28:44.327Z,63.57
2018-03-21T19:31:12.672Z,63.20
2018-03-21T19:33:40.344Z,64.31
2018-03-21T19:36:07.935Z,64.25
2018-03-21T19:38:35.519Z,64.87
2018-03-21T19:41:03.099Z,64.73
2018-03-21T19:43:30.754Z,64.74
2018-03-21T19:45:59.327Z,64.17
2018-03-21T19:48:26.899Z,64.35
2018-03-21T19:50:54.467Z,64.62
2018-03-21T19:53:22.053Z,64.05
2018-03-21T19:55:49.619Z,63.99
2018-03-21T19:58:18.137Z,64.21
2018-03-21T20:00:46.610Z,64.48
2018-03-21T20:03:14.193Z,64.21
2018-03-21T20:05:41.892Z,64.28
2018-03-21T20:08:10.306Z,63.11
2018-03-21T20:10:39.772Z,63.41
2018-03-21T20:13:08.278Z,63.00
2018-03-21T20:15:36.727Z,63.38
2018-03-21T20:18:05.081Z,62.99
2018-03-21T20:20:33.446Z,63.11
2018-03-21T20:23:01.038Z,63.37
2018-03-21T20:25:29.396Z,63.21
2018-03-21T20:27:57.687Z,63.49
2018-03-21T20:30:25.265Z,64.01
2018-03-21T20:32:53.667Z,63.74
2018-03-21T20:35:22.299Z,63.47
2018-03-21T20:37:49.876Z,64.02
2018-03-21T20:40:18.200Z,64.67
2018-03-21T20:42:46.740Z,64.49
2018-03-21T20:45:15.938Z,64.68
2018-03-21T20:47:43.564Z,64.60
2018-03-21T20:50:11.179Z,65.83
2018-03-21T20:52:38.751Z,65.29
2018-03-21T20:55:07.279Z,65.25
2018-03-21T20:57:35.564Z,65.50
2018-03-21T21:00:03.839Z,65.86
2018-03-21T21:02:31.839Z,65.90
2018-03-21T21:05:00.328Z,66.37
2018-03-21T21:07:28.859Z,67.21
2018-03-21T21:09:56.446Z,66.78
2018-03-21T21:12:24.019Z,66.94
2018-03-21T21:14:51.608Z,66.49
2018-03-21T21:17:19.199Z,66.75
2018-03-21T21:19:46.778Z,66.62
2018-03-21T21:22:14.429Z,66.57
2018-03-21T21:24:43.564Z,67.59
2018-03-21T21:27:11.202Z,66.07
2018-03-21T21:29:38.790Z,66.02
2018-03-21T21:32:06.379Z,65.82
2018-03-21T21:34:33.987Z,65.91
2018-03-21T21:37:02.149Z,66.20
2018-03-21T21:39:29.763Z,66.42
2018-03-21T21:41:58.122Z,65.94
2018-03-21T21:44:26.500Z,66.14
2018-03-21T21:46:54.081Z,65.98
2018-03-21T21:49:21.650Z,65.07
2018-03-21T21:51:49.291Z,65.85
2018-03-21T21:54:16.860Z,64.77
2018-03-21T21:56:45.312Z,65.34
2018-03-21T21:59:12.917Z,65.20
2018-03-21T22:01:40.492Z,65.38
2018-03-21T22:04:08.067Z,65.48
2018-03-21T22:06:35.786Z,65.30
2018-03-21T22:09:03.363Z,65.22
2018-03-21T22:11:31.636Z,65.68
2018-03-21T22:13:59.211Z,65.44
2018-03-21T22:16:26.778Z,65.43
2018-03-21T22:18:54.357Z,64.68
2018-03-21T22:21:21.938Z,65.69
2018-03-21T22:23:49.508Z,65.49
2018-03-21T22:26:17.066Z,64.74
2018-03-21T22:28:45.474Z,65.89
2018-03-21T22:31:13.052Z,65.10
2018-03-21T22:33:40.693Z,64.75
2018-03-21T22:36:08.978Z,64.67
2018-03-21T22:38:36.584Z,66.10
2018-03-21T22:41:04.153Z,65.22
2018-03-21T22:43:31.717Z,64.85
2018-03-21T22:45:59.282Z,65.52
2018-03-21T22:48:27.769Z,65.10
2018-03-21T22:50:55.339Z,65.26
2018-03-21T22:53:23.751Z,66.07
2018-03-21T22:55:52.260Z,65.82
2018-03-21T22:58:20.610Z,66.25
2018-03-21T23:00:48.179Z,65.92
2018-03-21T23:03:15.787Z,65.96
2018-03-21T23:05:43.393Z,66.21
2018-03-21T23:08:11.924Z,65.92
2018-03-21T23:10:39.508Z,66.45
2018-03-21T23:13:07.122Z,66.21
2018-03-21T23:15:35.610Z,66.08
2018-03-21T23:18:03.188Z,65.86
2018-03-21T23:20:30.771Z,66.59
2018-03-21T23:22:58.349Z,66.67
2018-03-21T23:25:26.827Z,66.06
2018-03-21T23:27:54.434Z,66.98
2018-03-21T23:30:22.956Z,66.76
2018-03-21T23:32:50.524Z,66.26
2018-03-21T23:35:18.147Z,66.62
2018-03-21T23:37:45.717Z,67.21
2018-03-21T23:40:14.216Z,66.77
2018-03-21T23:42:41.788Z,66.49
2018-03-21T23:45:09.375Z,67.14
2018-03-21T23:47:36.955Z,67.32
2018-03-21T23:50:05.310Z,67.04
2018-03-21T23:52:32.887Z,66.83
2018-03-21T23:55:00.511Z,66.38
2018-03-21T23:57:28.123Z,66.80
2018-03-21T23:59:56.401Z,66.50
